Terminal Aerodrome Forecast
Issued by NWS

Home | Current Version | Previous Version | Graphics & Text | Print | Product List | Glossary On
Versions: 1 2 3 4 5 6 7 8 9 10 11 12 13 14 15 16 17 18
626
FTUS43 KIWX 290127 AAA
TAFSBN
TAF AMD
KSBN 290127Z 2901/2924 06006KT P6SM FEW040 BKN150
     FM290800 07004KT 5SM BR SCT015 BKN120
     FM291300 07005KT P6SM SCT040 BKN100
     FM292100 05008KT P6SM VCSH BKN050=

USA.gov is the U.S. government's official web portal to all federal, state and local government web resources and services.